Asaph, Pennsylvania
Current Conditions -  °F | °C
As of 8:55 PM on Friday 19 Dec 2014 (Local Time) from KN38 Reporting Station
Overcast Overcast  
Wind Chill: 13°   Ceiling: 2800
Heat Index: 25°   Visibility: 10mi
Dew Point: 18°   Wind: 13mph
Humidity: 74%   Direction: 320°NW
Pressure: 30.16"   Gusts: 20mph
Location:  41.7308°N, 77.349°W
Report Text: KN38 200155Z AUTO 32011G17KT 10SM SCT019 SCT023 OVC028 M04/M08 A3016 RMK AO2
Loading
Personal Weather Stations






























Interactive Weather Map New forecast layout! Learn more

10-Day Weather Forecast

Advertisements
Track Severe Weather on mobile